createdAt,value
2019-04-11T07:04:29.496Z,3756.00
2019-04-11T07:05:29.102Z,3768.00
2019-04-11T07:06:29.389Z,3772.00
2019-04-11T07:07:30.659Z,3780.00
2019-04-11T07:08:30.053Z,3792.00
2019-04-11T07:09:29.001Z,3800.00
2019-04-11T07:10:28.978Z,3812.00
2019-04-11T07:11:28.948Z,3828.00
2019-04-11T07:12:28.938Z,3836.00
2019-04-11T07:13:28.900Z,3848.00
2019-04-11T07:14:29.147Z,3856.00
2019-04-11T07:15:29.406Z,3856.00
2019-04-11T07:16:29.653Z,3868.00
2019-04-11T07:17:29.681Z,3884.00
2019-04-11T07:18:29.119Z,3900.00
2019-04-11T07:19:28.758Z,3920.00
2019-04-11T07:20:29.324Z,3924.00
2019-04-11T07:21:28.717Z,3932.00
2019-04-11T07:22:28.690Z,3944.00
2019-04-11T08:23:34.188Z,4128.00
2019-04-11T08:24:34.471Z,4128.00
2019-04-11T08:25:34.134Z,4128.00
2019-04-11T08:26:34.116Z,4136.00
2019-04-11T08:27:34.077Z,4144.00
2019-04-11T08:28:35.290Z,4152.00
2019-04-11T08:29:34.109Z,4152.00
2019-04-11T08:30:41.850Z,4152.00
2019-04-11T08:31:33.997Z,4164.00
2019-04-11T08:32:33.962Z,4172.00
2019-04-11T08:33:34.993Z,4172.00
2019-04-11T08:34:33.916Z,4172.00
2019-04-11T08:35:34.935Z,4176.00
2019-04-11T08:36:33.890Z,4180.00
2019-04-11T08:37:33.861Z,4184.00
2019-04-11T09:07:56.653Z,4784.00
2019-04-11T09:08:56.617Z,4884.00
2019-04-11T09:09:57.670Z,4832.00
2019-04-11T09:10:56.569Z,4852.00
2019-04-11T09:11:56.563Z,4876.00
2019-04-11T09:12:56.523Z,4848.00
2019-04-11T09:13:57.525Z,4904.00
2019-04-11T09:14:56.766Z,5268.00
2019-04-11T09:15:57.223Z,5348.00
2019-04-11T09:17:03.836Z,5316.00
2019-04-11T09:18:03.439Z,5356.00
2019-04-11T09:18:57.339Z,5364.00
2019-04-11T09:19:57.004Z,5456.00
2019-04-11T09:20:56.353Z,5620.00
2019-04-11T09:21:56.364Z,5784.00
2019-04-11T09:22:57.387Z,6020.00
2019-04-11T09:23:56.292Z,6588.00
2019-04-11T09:24:56.937Z,7196.00
2019-04-11T09:30:32.662Z,6664.00
2019-04-11T09:31:31.930Z,6804.00
2019-04-11T09:32:31.943Z,6612.00
2019-04-11T09:33:32.895Z,6592.00
2019-04-11T09:34:31.846Z,5924.00
2019-04-11T09:35:31.823Z,5964.00
2019-04-11T09:36:32.321Z,6032.00
2019-04-11T09:37:31.799Z,6636.00
2019-04-11T09:38:32.793Z,6756.00
2019-04-11T09:39:31.975Z,6664.00
2019-04-11T09:40:31.938Z,6972.00
2019-04-11T09:41:32.302Z,6564.00
2019-04-11T09:42:32.486Z,6624.00
2019-04-11T09:43:31.882Z,6876.00
2019-04-11T09:44:32.717Z,7340.00
2019-04-11T09:45:31.619Z,7416.00
2019-04-11T09:46:32.438Z,7224.00
2019-04-11T09:47:32.561Z,6344.00
2019-04-11T10:05:24.491Z,5440.00
2019-04-11T10:06:24.400Z,5444.00
2019-04-11T10:07:24.378Z,5508.00
2019-04-11T10:08:24.609Z,5508.00
2019-04-11T10:09:24.350Z,5512.00
2019-04-11T10:10:24.656Z,5552.00
2019-04-11T10:11:24.293Z,5556.00
2019-04-11T10:12:24.293Z,5564.00
2019-04-11T10:13:24.959Z,5620.00
2019-04-11T10:14:24.251Z,5692.00
2019-04-11T10:27:09.056Z,5896.00
2019-04-11T10:28:09.244Z,5920.00
2019-04-11T10:29:08.994Z,5956.00
2019-04-11T10:30:08.990Z,6012.00
2019-04-11T10:31:08.955Z,6048.00
2019-04-11T10:32:08.932Z,6052.00
2019-04-11T10:33:08.911Z,6048.00
2019-04-11T10:34:09.170Z,6088.00
2019-04-11T10:46:23.348Z,6288.00
2019-04-11T10:47:23.314Z,6344.00
2019-04-11T10:48:32.617Z,6352.00
2019-04-11T10:49:23.272Z,6360.00
2019-04-11T10:50:23.684Z,6372.00
2019-04-11T10:51:23.233Z,6396.00
2019-04-11T10:52:24.526Z,6404.00
2019-04-11T10:53:23.188Z,6396.00
2019-04-11T11:04:38.772Z,6732.00
2019-04-11T11:05:38.097Z,6768.00
2019-04-11T11:06:37.936Z,6812.00
2019-04-11T11:07:37.383Z,6880.00
2019-04-11T11:08:37.609Z,6964.00
2019-04-11T11:09:38.772Z,7036.00
2019-04-11T11:10:37.567Z,7084.00
2019-04-11T11:11:37.319Z,7112.00
2019-04-11T11:21:19.762Z,7480.00
2019-04-11T11:22:18.948Z,7548.00
2019-04-11T11:23:18.927Z,7624.00
2019-04-11T11:24:19.739Z,7716.00
2019-04-11T11:25:19.566Z,7820.00
2019-04-11T11:26:22.717Z,7912.00
2019-04-11T11:27:18.849Z,7976.00
2019-04-11T11:28:18.834Z,7992.00
2019-04-11T11:29:19.247Z,8008.00
2019-04-11T11:30:18.822Z,8016.00
2019-04-11T11:31:19.950Z,8040.00
2019-04-11T11:32:18.960Z,8104.00
2019-04-11T11:33:18.741Z,8140.00
2019-04-11T11:34:20.327Z,8200.00
2019-04-11T11:35:22.581Z,8268.00
2019-04-11T11:36:19.402Z,8296.00
2019-04-11T11:37:18.806Z,8336.00
2019-04-11T11:38:19.786Z,8388.00
2019-04-11T11:39:19.338Z,8436.00
2019-04-11T11:40:18.963Z,8484.00
2019-04-11T11:41:18.603Z,8536.00
2019-04-11T11:42:19.827Z,8596.00
2019-04-11T11:43:19.046Z,8636.00
2019-04-11T11:44:19.501Z,8668.00
2019-04-11T11:45:19.520Z,8668.00
2019-04-11T11:46:19.358Z,8700.00
2019-04-11T11:47:19.514Z,8736.00
2019-04-11T11:48:20.776Z,8792.00
2019-04-11T11:49:36.273Z,8824.00
2019-04-11T11:50:21.613Z,8860.00
2019-04-11T11:51:20.919Z,8924.00
2019-04-11T11:52:19.313Z,8992.00
2019-04-11T11:53:18.509Z,9036.00
2019-04-11T11:54:19.696Z,9068.00
2019-04-11T11:55:20.066Z,9128.00
2019-04-11T11:56:18.353Z,9160.00
2019-04-11T11:57:18.408Z,9196.00
2019-04-11T11:58:19.820Z,9244.00
2019-04-11T11:59:19.414Z,9260.00
2019-04-11T12:00:18.292Z,9292.00
2019-04-11T12:01:18.276Z,9312.00
2019-04-11T12:02:20.888Z,9376.00
2019-04-11T12:03:19.093Z,9412.00
2019-04-11T12:04:19.092Z,9452.00
2019-04-11T12:05:18.587Z,9444.00
2019-04-11T12:06:22.324Z,9440.00
2019-04-11T12:07:18.957Z,9464.00
2019-04-11T12:08:18.330Z,9520.00
2019-04-11T12:09:18.382Z,9536.00
2019-04-11T12:10:19.469Z,9572.00
2019-04-11T12:11:18.118Z,9600.00
2019-04-11T12:12:18.118Z,9616.00
2019-04-11T12:13:19.163Z,9616.00
2019-04-11T12:14:18.156Z,9632.00
2019-04-11T12:15:22.053Z,9696.00
2019-04-11T12:16:21.417Z,9724.00
2019-04-11T12:17:18.603Z,9772.00
2019-04-11T12:18:18.891Z,9824.00
2019-04-11T12:19:20.366Z,9864.00
2019-04-11T12:20:18.573Z,9928.00
2019-04-11T12:21:21.856Z,9984.00
2019-04-11T12:22:18.083Z,10036.00
2019-04-11T12:23:17.951Z,10044.00
2019-04-11T12:24:17.926Z,10076.00
2019-04-11T12:25:17.909Z,10128.00
2019-04-11T12:26:18.394Z,10156.00
2019-04-11T12:27:18.467Z,10164.00
2019-04-11T12:28:18.015Z,10180.00
2019-04-11T12:29:18.590Z,10228.00
2019-04-11T12:30:20.839Z,10300.00
2019-04-11T12:31:17.820Z,10324.00
2019-04-11T12:32:17.806Z,10316.00
2019-04-11T12:33:17.806Z,10356.00
2019-04-11T12:34:18.667Z,10436.00
2019-04-11T12:35:17.834Z,10472.00
2019-04-11T12:36:18.744Z,10512.00
2019-04-11T12:37:19.802Z,10560.00
2019-04-11T12:38:20.283Z,10632.00
2019-04-11T12:39:17.706Z,10648.00
2019-04-11T12:40:17.691Z,10660.00
2019-04-11T12:41:20.075Z,10680.00
2019-04-11T12:42:17.662Z,10716.00
2019-04-11T12:43:17.669Z,10760.00
2019-04-11T12:44:17.634Z,10800.00
2019-04-11T12:45:17.621Z,10864.00
2019-04-11T12:46:17.608Z,10916.00
2019-04-11T12:47:17.597Z,10992.00
2019-04-11T12:48:17.594Z,11084.00
2019-04-11T12:49:17.566Z,11156.00
2019-04-11T12:50:17.553Z,11220.00
2019-04-11T12:51:17.538Z,11316.00
2019-04-11T12:52:17.524Z,11360.00
2019-04-11T12:53:17.511Z,11424.00
2019-04-11T12:54:17.513Z,11488.00
2019-04-11T12:55:17.519Z,11588.00
2019-04-11T12:56:17.469Z,11696.00
2019-04-11T12:57:17.456Z,11952.00
2019-04-11T12:58:17.461Z,12292.00
2019-04-11T12:59:17.427Z,13096.00
2019-04-11T13:00:17.416Z,14628.00
2019-04-11T13:01:17.406Z,17952.00
2019-04-11T13:02:17.391Z,20992.00
2019-04-11T13:03:17.378Z,27712.00
2019-04-11T13:04:17.376Z,35392.00
2019-04-11T13:05:17.350Z,31008.00
2019-04-11T13:06:17.345Z,28992.00
2019-04-11T13:07:17.327Z,32160.00
2019-04-11T13:08:17.320Z,30240.00
2019-04-11T13:09:17.315Z,32640.00
2019-04-11T13:10:17.286Z,37952.00
2019-04-11T13:11:17.274Z,40544.00
2019-04-11T13:12:17.260Z,46976.00
2019-04-11T13:13:17.247Z,55808.00
2019-04-11T13:14:17.245Z,61856.00
2019-04-11T13:15:17.220Z,67200.00
2019-04-11T13:16:17.207Z,64576.00
2019-04-11T13:17:17.205Z,60832.00
2019-04-11T13:18:17.182Z,60576.00
2019-04-11T13:19:17.206Z,67392.00
2019-04-11T13:20:17.155Z,69824.00
2019-04-11T13:21:17.145Z,75392.00
2019-04-11T13:22:17.134Z,77440.00
2019-04-11T13:23:17.119Z,74752.00
2019-04-11T13:24:17.106Z,77472.00
2019-04-11T13:25:17.108Z,85120.00
2019-04-11T13:26:17.083Z,82240.00
2019-04-11T13:27:17.072Z,90048.00
2019-04-11T13:28:17.057Z,98784.00
2019-04-11T13:29:17.046Z,91520.00
2019-04-11T13:30:17.048Z,84576.00
2019-04-11T13:31:17.021Z,81088.00
2019-04-11T13:32:17.010Z,75520.00
2019-04-11T13:33:16.999Z,78112.00
2019-04-11T13:34:16.990Z,89344.00
2019-04-11T13:35:16.988Z,95520.00
2019-04-11T13:36:16.962Z,93856.00
2019-04-11T13:37:16.956Z,93216.00
2019-04-11T13:38:17.381Z,97184.00
2019-04-11T13:39:16.927Z,99136.00
2019-04-11T13:40:16.934Z,92480.00
2019-04-11T13:41:16.907Z,94624.00
2019-04-11T13:42:16.900Z,98080.00
2019-04-11T13:43:16.883Z,95968.00
2019-04-11T13:44:16.873Z,96928.00
2019-04-11T13:45:16.875Z,99616.00
2019-04-11T13:46:16.853Z,92480.00
2019-04-11T13:47:16.839Z,94656.00
2019-04-11T13:48:16.829Z,98144.00
2019-04-11T13:49:16.821Z,94432.00
2019-04-11T13:50:17.132Z,98112.00
2019-04-11T13:51:16.811Z,104960.00
2019-04-11T13:52:16.787Z,101312.00
2019-04-11T13:53:16.776Z,98080.00
2019-04-11T13:54:16.765Z,94784.00
2019-04-11T13:55:16.753Z,100416.00
2019-04-11T13:56:16.761Z,107104.00
2019-04-11T13:57:16.737Z,98752.00
2019-04-11T13:58:16.721Z,95168.00
2019-04-11T13:59:16.713Z,95968.00
2019-04-11T14:00:16.719Z,93280.00
2019-04-11T14:01:16.691Z,97728.00
2019-04-11T14:02:16.683Z,93504.00
2019-04-11T14:03:16.672Z,89408.00
2019-04-11T14:04:16.660Z,91424.00
2019-04-11T14:05:16.689Z,88928.00
2019-04-11T14:06:16.640Z,86528.00
2019-04-11T14:07:16.630Z,90048.00
2019-04-11T14:08:17.937Z,91136.00
2019-04-11T14:09:16.610Z,86912.00
2019-04-11T14:10:16.600Z,85152.00
2019-04-11T14:11:16.602Z,84736.00
2019-04-11T14:12:16.580Z,88576.00
2019-04-11T14:13:16.573Z,88608.00
2019-04-11T14:14:16.563Z,86816.00
2019-04-11T14:15:16.551Z,88800.00
2019-04-11T14:16:16.559Z,87168.00
2019-04-11T14:17:16.536Z,92640.00
2019-04-11T14:18:16.525Z,88960.00
2019-04-11T14:19:16.513Z,87936.00
2019-04-11T14:20:28.243Z,82304.00
2019-04-11T14:21:16.512Z,78784.00
2019-04-11T14:22:16.489Z,82464.00
2019-04-11T14:23:16.479Z,84384.00
2019-04-11T14:24:16.470Z,83840.00
2019-04-11T14:25:16.462Z,85024.00
2019-04-11T14:26:16.495Z,83328.00
2019-04-11T14:27:16.447Z,81824.00
2019-04-11T14:28:16.437Z,78560.00
2019-04-11T14:29:16.428Z,79520.00
2019-04-11T14:30:18.552Z,77184.00
2019-04-11T14:31:16.411Z,78976.00
2019-04-11T14:32:16.418Z,79296.00
2019-04-11T14:33:16.398Z,77312.00
2019-04-11T14:34:16.387Z,77408.00
2019-04-11T14:35:16.383Z,75872.00
2019-04-11T14:36:16.371Z,74720.00
2019-04-11T14:37:16.379Z,70464.00
2019-04-11T14:38:16.360Z,70272.00
2019-04-11T14:39:16.369Z,70016.00
2019-04-11T14:40:16.340Z,73600.00
2019-04-11T14:41:16.387Z,75296.00
2019-04-11T14:42:16.352Z,75776.00
2019-04-11T14:43:16.874Z,79744.00
2019-04-11T14:44:16.476Z,79104.00
2019-04-11T14:45:16.331Z,75488.00
2019-04-11T14:46:16.319Z,68640.00
2019-04-11T14:47:16.300Z,67360.00
2019-04-11T14:48:16.276Z,67552.00
2019-04-11T14:49:16.267Z,67456.00
2019-04-11T14:50:16.282Z,66624.00
2019-04-11T14:51:16.894Z,67488.00
2019-04-11T14:52:17.291Z,68128.00
2019-04-11T14:53:16.951Z,67840.00
2019-04-11T14:54:18.300Z,67840.00
2019-04-11T14:55:16.788Z,69248.00
2019-04-11T14:56:16.235Z,70720.00
2019-04-11T14:57:16.208Z,68320.00
2019-04-11T14:58:16.194Z,72032.00
2019-04-11T14:59:16.188Z,76544.00
2019-04-11T15:00:16.181Z,76896.00
2019-04-11T15:01:16.176Z,96960.00
2019-04-11T15:02:16.190Z,93184.00
2019-04-11T15:03:16.164Z,64416.00
2019-04-11T15:04:16.156Z,52800.00
2019-04-11T15:05:16.161Z,48128.00
2019-04-11T15:06:16.142Z,45824.00
2019-04-11T15:07:16.146Z,44512.00
2019-04-11T15:08:17.769Z,42816.00
2019-04-11T15:09:16.870Z,42560.00
2019-04-11T15:10:17.051Z,42816.00
2019-04-11T15:11:18.410Z,42400.00
2019-04-11T15:12:17.927Z,42880.00
2019-04-11T15:13:17.956Z,42336.00
2019-04-11T15:14:17.665Z,41536.00
2019-04-11T15:15:16.085Z,43232.00
2019-04-11T15:16:16.076Z,45024.00
2019-04-11T15:17:16.076Z,45152.00
2019-04-11T15:18:16.080Z,49472.00
2019-04-11T15:19:16.048Z,52768.00
2019-04-11T15:20:16.052Z,39616.00
2019-04-11T15:21:16.042Z,19296.00
2019-04-11T15:22:16.061Z,12652.00
2019-04-11T15:23:16.022Z,11660.00
2019-04-11T15:24:16.013Z,11208.00
2019-04-11T15:25:16.005Z,11004.00
2019-04-11T15:26:15.997Z,10916.00
2019-04-11T15:27:16.012Z,10904.00
2019-04-11T15:28:15.979Z,10868.00
2019-04-11T15:29:15.970Z,10840.00
2019-04-11T15:30:16.956Z,10852.00
2019-04-11T15:31:18.423Z,10908.00
2019-04-11T15:32:15.949Z,10948.00
2019-04-11T15:33:15.957Z,11040.00
2019-04-11T15:34:15.921Z,11208.00
2019-04-11T15:35:15.913Z,11368.00
2019-04-11T15:36:15.898Z,11780.00
2019-04-11T15:37:15.886Z,14316.00
2019-04-11T15:38:15.890Z,23072.00
2019-04-11T15:39:15.864Z,31232.00
2019-04-11T15:40:15.857Z,38432.00
2019-04-11T15:41:15.841Z,45120.00
2019-04-11T15:42:16.129Z,48480.00
2019-04-11T15:43:15.832Z,49472.00
2019-04-11T15:44:15.804Z,49408.00
2019-04-11T15:45:15.791Z,47648.00
2019-04-11T15:46:17.007Z,46848.00
2019-04-11T15:47:18.761Z,45440.00
2019-04-11T15:48:17.861Z,44928.00
2019-04-11T15:49:21.952Z,44608.00
2019-04-11T15:50:15.732Z,32896.00
2019-04-11T15:51:15.724Z,16864.00
2019-04-11T15:52:15.710Z,10576.00
2019-04-11T15:53:15.711Z,10260.00
2019-04-11T15:54:15.686Z,13928.00
2019-04-11T15:55:15.675Z,22752.00
2019-04-11T15:56:15.667Z,28768.00
2019-04-11T15:57:15.657Z,32384.00
2019-04-11T15:58:15.657Z,38528.00
2019-04-11T15:59:15.632Z,38784.00
2019-04-11T16:00:15.619Z,38112.00
2019-04-11T16:01:15.614Z,38624.00
2019-04-11T16:02:15.596Z,35296.00
2019-04-11T16:03:15.596Z,31648.00
2019-04-11T16:04:15.571Z,29504.00
2019-04-11T16:05:15.561Z,31328.00
2019-04-11T16:06:15.549Z,33504.00
2019-04-11T16:07:15.539Z,34176.00
2019-04-11T16:08:15.547Z,33440.00
2019-04-11T16:09:15.519Z,32352.00
2019-04-11T16:10:15.516Z,32832.00
2019-04-11T16:11:15.504Z,33312.00
2019-04-11T16:12:17.008Z,32480.00
2019-04-11T16:13:15.479Z,32544.00
2019-04-11T16:14:15.484Z,32480.00
2019-04-11T16:15:15.461Z,31904.00
2019-04-11T16:16:15.451Z,31488.00
2019-04-11T16:17:15.449Z,30336.00
2019-04-11T16:18:15.991Z,30272.00
2019-04-11T16:19:17.148Z,29056.00
2019-04-11T16:20:17.811Z,28288.00
2019-04-11T16:21:18.646Z,28352.00
2019-04-11T16:22:15.399Z,28128.00
2019-04-11T16:23:15.454Z,27328.00
2019-04-11T16:24:15.419Z,27712.00
2019-04-11T16:25:15.377Z,27584.00
2019-04-11T16:26:15.368Z,27328.00
2019-04-11T16:27:15.359Z,27136.00
2019-04-11T16:28:15.353Z,26752.00
2019-04-11T16:29:15.344Z,25952.00
2019-04-11T16:30:15.350Z,24992.00
2019-04-11T16:31:15.332Z,23936.00
2019-04-11T16:32:15.323Z,22464.00
2019-04-11T16:33:15.313Z,17344.00
2019-04-11T16:34:16.077Z,18400.00
2019-04-11T16:35:15.310Z,16704.00
2019-04-11T16:36:15.289Z,18368.00
2019-04-11T16:37:17.774Z,20800.00
2019-04-11T16:38:18.830Z,20896.00
2019-04-11T16:39:15.265Z,20480.00
2019-04-11T16:40:15.312Z,19104.00
2019-04-11T16:41:15.251Z,15680.00
2019-04-11T16:42:15.241Z,13984.00
2019-04-11T16:43:15.235Z,15168.00
2019-04-11T16:44:15.227Z,17248.00
2019-04-11T16:45:15.231Z,17440.00
2019-04-11T16:46:15.208Z,17440.00
2019-04-11T16:47:15.202Z,17280.00
2019-04-11T16:48:15.199Z,16960.00
2019-04-11T16:49:15.183Z,16608.00
2019-04-11T16:50:15.210Z,16448.00
2019-04-11T16:51:15.164Z,16160.00
2019-04-11T16:52:15.166Z,15808.00
2019-04-11T16:53:15.161Z,15456.00
2019-04-11T16:54:15.141Z,14848.00
2019-04-11T16:55:15.137Z,14240.00
2019-04-11T16:56:15.141Z,12084.00
2019-04-11T16:57:15.115Z,10876.00
2019-04-11T16:58:19.307Z,10552.00
2019-04-11T16:59:15.096Z,9080.00
2019-04-11T17:00:15.089Z,8412.00
2019-04-11T17:01:15.095Z,7896.00
2019-04-11T17:02:15.071Z,6732.00
2019-04-11T17:03:17.207Z,6308.00
2019-04-11T17:04:15.051Z,6108.00
2019-04-11T17:05:15.039Z,5984.00
2019-04-11T17:06:15.044Z,5896.00
2019-04-11T17:07:15.018Z,5816.00
2019-04-11T17:08:15.006Z,5740.00
2019-04-11T17:09:14.996Z,5660.00
2019-04-11T17:10:14.983Z,5580.00
2019-04-11T17:11:14.990Z,5496.00
2019-04-11T17:12:14.958Z,5420.00
2019-04-11T17:13:14.946Z,5352.00
2019-04-11T17:14:14.934Z,5284.00
2019-04-11T17:15:14.917Z,5220.00
2019-04-11T17:16:14.904Z,5152.00
2019-04-11T17:17:15.601Z,5080.00
2019-04-11T17:18:14.877Z,5000.00
2019-04-11T17:19:14.862Z,4924.00
2019-04-11T17:20:14.849Z,4840.00
2019-04-11T17:21:14.850Z,4752.00
2019-04-11T17:22:16.857Z,4664.00
2019-04-11T17:23:17.240Z,4580.00
2019-04-11T17:24:16.716Z,4492.00
2019-04-11T17:25:14.776Z,4416.00
2019-04-11T17:26:14.760Z,4348.00
2019-04-11T17:27:14.758Z,4312.00
2019-04-11T17:28:14.731Z,4264.00
2019-04-11T17:30:46.768Z,4040.00
2019-04-11T17:31:46.750Z,3972.00
2019-04-11T17:32:46.766Z,3968.00
2019-04-11T17:33:46.717Z,3760.00
2019-04-11T17:34:46.702Z,3568.00
2019-04-11T17:35:46.686Z,3424.00
2019-04-11T17:36:46.666Z,3300.00
2019-04-11T17:37:46.799Z,3196.00
2019-04-11T17:38:46.649Z,3096.00
2019-04-11T17:39:46.627Z,3004.00
2019-04-11T17:40:46.601Z,2908.00
2019-04-11T17:41:46.584Z,2816.00
2019-04-11T17:42:46.586Z,2720.00
2019-04-11T17:43:47.004Z,2624.00
2019-04-11T17:44:46.534Z,2528.00
2019-04-11T17:45:46.517Z,2428.00
2019-04-11T17:46:46.502Z,2336.00
2019-04-11T17:47:46.485Z,2244.00
2019-04-11T17:48:46.486Z,2160.00
2019-04-11T17:49:46.453Z,2064.00
2019-04-11T17:50:46.437Z,1980.00
2019-04-11T17:51:55.255Z,1892.00
2019-04-11T17:52:46.403Z,1804.00
2019-04-11T17:53:46.396Z,1724.00
2019-04-11T17:54:46.367Z,1636.00
2019-04-11T17:55:46.348Z,1560.00
2019-04-11T17:56:46.328Z,1476.00
2019-04-11T17:57:46.311Z,1396.00
2019-04-11T17:58:46.309Z,1324.00
2019-04-11T17:59:48.653Z,1248.00
2019-04-11T18:00:46.259Z,1180.00
2019-04-11T18:01:46.239Z,1112.00
2019-04-11T18:02:46.427Z,1052.00
2019-04-11T18:03:46.227Z,984.00
2019-04-11T18:04:47.887Z,924.00
2019-04-11T18:05:47.116Z,864.00
2019-04-11T18:06:47.262Z,812.00
2019-04-11T18:07:47.545Z,756.00
2019-04-11T18:08:46.706Z,704.00
2019-04-11T18:09:46.111Z,656.00
2019-04-11T18:10:46.082Z,608.00
2019-04-11T18:11:46.063Z,564.00
2019-04-11T18:12:46.043Z,520.00
2019-04-11T18:13:46.030Z,480.00
2019-04-11T18:14:46.019Z,440.00
2019-04-11T18:15:45.998Z,404.00
2019-04-11T18:16:45.968Z,372.00
2019-04-11T18:17:45.952Z,336.00
2019-04-11T18:18:45.933Z,308.00
2019-04-11T18:19:45.932Z,284.00
2019-04-11T18:20:45.893Z,256.00
2019-04-11T18:21:45.876Z,228.00
2019-04-11T18:22:46.294Z,208.00
2019-04-11T18:23:49.808Z,184.00
2019-04-11T18:24:49.881Z,168.00
2019-04-11T18:25:45.815Z,148.00
2019-04-11T18:26:45.786Z,132.00
2019-04-11T18:27:45.766Z,116.00
2019-04-11T18:28:45.743Z,104.00
2019-04-11T18:29:45.724Z,88.00
2019-04-11T18:30:45.726Z,76.00
2019-04-11T18:31:45.687Z,68.00
2019-04-11T18:32:45.668Z,60.00
2019-04-11T18:33:45.648Z,48.00
2019-04-11T18:34:45.628Z,44.00
2019-04-11T18:35:45.611Z,36.00
2019-04-11T18:36:45.603Z,32.00
2019-04-11T18:37:45.568Z,28.00
2019-04-11T18:38:45.554Z,20.00
2019-04-11T18:39:45.533Z,16.00
2019-04-11T18:40:45.513Z,16.00
2019-04-11T18:41:45.511Z,12.00
2019-04-11T18:42:45.482Z,8.00
2019-04-11T18:43:47.247Z,8.00
2019-04-11T18:44:45.432Z,8.00
2019-04-11T18:45:45.418Z,8.00
2019-04-11T18:46:45.410Z,4.00
2019-04-11T18:47:45.376Z,4.00
2019-04-11T18:48:45.356Z,4.00
2019-04-11T18:49:45.339Z,0.00
2019-04-11T18:50:45.318Z,4.00
2019-04-11T18:51:45.315Z,0.00
2019-04-11T18:52:45.278Z,0.00
2019-04-11T18:53:45.258Z,4.00
2019-04-11T18:54:45.237Z,0.00
2019-04-11T18:55:45.220Z,0.00
2019-04-11T18:56:45.218Z,0.00
2019-04-11T18:57:45.180Z,0.00
2019-04-11T18:58:45.160Z,0.00
2019-04-11T18:59:45.140Z,0.00
2019-04-11T19:00:45.119Z,0.00
2019-04-11T19:01:45.098Z,0.00
2019-04-11T19:02:45.093Z,0.00
2019-04-11T19:03:45.059Z,0.00
2019-04-11T19:04:45.040Z,0.00
2019-04-11T19:05:45.020Z,0.00
2019-04-11T19:06:45.000Z,0.00
2019-04-11T19:07:44.990Z,0.00
2019-04-11T19:08:44.960Z,0.00
2019-04-11T19:09:44.941Z,0.00
2019-04-11T19:10:45.770Z,0.00
2019-04-11T19:11:46.263Z,0.00
2019-04-11T19:12:46.485Z,0.00
2019-04-11T19:13:47.085Z,0.00
2019-04-11T19:14:46.095Z,0.00
2019-04-11T19:15:45.691Z,0.00
2019-04-11T19:16:46.009Z,0.00
2019-04-11T19:17:46.806Z,0.00
2019-04-11T19:18:47.651Z,0.00
2019-04-11T19:19:48.650Z,0.00
2019-04-11T19:20:44.713Z,0.00
2019-04-11T19:21:44.692Z,0.00
2019-04-11T19:22:44.675Z,0.00
2019-04-11T19:23:44.666Z,0.00
2019-04-11T19:24:44.632Z,0.00
2019-04-11T19:25:45.267Z,0.00
2019-04-11T19:26:46.380Z,0.00
2019-04-11T19:27:44.571Z,0.00
2019-04-11T19:28:44.563Z,0.00
2019-04-11T19:29:44.528Z,0.00
2019-04-11T19:30:44.508Z,0.00
2019-04-11T19:31:44.490Z,0.00
2019-04-11T19:32:44.467Z,0.00
2019-04-11T19:33:44.460Z,0.00
2019-04-11T19:34:44.427Z,0.00
2019-04-11T19:35:44.408Z,0.00
2019-04-11T19:36:44.386Z,0.00
2019-04-11T19:37:44.362Z,0.00
2019-04-11T19:38:44.362Z,0.00
2019-04-11T19:39:45.384Z,0.00
2019-04-11T19:40:47.005Z,0.00
2019-04-11T19:41:47.841Z,0.00
2019-04-11T19:42:44.280Z,0.00
2019-04-11T19:43:44.240Z,0.00
2019-04-11T19:44:44.230Z,0.00
2019-04-11T19:45:44.197Z,0.00
2019-04-11T19:46:44.174Z,0.00
2019-04-11T19:47:44.155Z,0.00
2019-04-11T19:48:44.133Z,0.00
2019-04-11T19:49:44.127Z,0.00
2019-04-11T19:50:44.092Z,0.00
2019-04-11T19:51:44.076Z,0.00
2019-04-11T19:52:45.778Z,0.00
2019-04-11T19:53:44.032Z,0.00
2019-04-11T19:54:44.022Z,0.00
2019-04-11T19:55:44.013Z,0.00
2019-04-11T19:56:43.966Z,0.00
2019-04-11T19:57:43.946Z,0.00
2019-04-11T19:58:43.923Z,0.00
2019-04-11T19:59:43.930Z,0.00
2019-04-11T20:00:43.880Z,0.00
2019-04-11T20:01:43.867Z,0.00
2019-04-11T20:02:43.840Z,0.00
2019-04-11T20:03:43.830Z,0.00
2019-04-11T20:04:46.442Z,0.00
2019-04-11T20:05:43.790Z,0.00
2019-04-11T20:06:43.759Z,0.00
2019-04-11T20:07:43.733Z,0.00
2019-04-11T20:08:43.720Z,0.00
2019-04-11T20:09:43.690Z,0.00
2019-04-11T20:10:43.683Z,0.00
2019-04-11T20:11:44.860Z,0.00
2019-04-11T20:12:43.627Z,0.00
2019-04-11T20:13:43.619Z,0.00
2019-04-11T20:14:43.585Z,0.00
2019-04-11T20:15:43.581Z,0.00
2019-04-11T20:16:48.128Z,0.00
2019-04-11T20:17:44.747Z,0.00
2019-04-11T20:18:50.709Z,0.00
2019-04-11T20:19:43.481Z,0.00
2019-04-11T20:20:43.473Z,0.00
2019-04-11T20:21:43.438Z,0.00
2019-04-11T20:22:43.415Z,0.00
2019-04-11T20:23:43.394Z,0.00
2019-04-11T20:24:46.822Z,0.00
2019-04-11T20:25:46.174Z,0.00
2019-04-11T20:26:43.330Z,0.00
2019-04-11T20:27:43.312Z,0.00
2019-04-11T20:28:43.287Z,0.00
2019-04-11T20:29:43.271Z,0.00
2019-04-11T20:30:43.243Z,0.00
2019-04-11T20:31:43.239Z,0.00
2019-04-11T20:32:43.203Z,0.00
2019-04-11T20:33:43.180Z,0.00
2019-04-11T20:34:43.157Z,0.00
2019-04-11T20:35:43.134Z,0.00
2019-04-11T20:36:43.130Z,0.00
2019-04-11T20:37:44.655Z,0.00
2019-04-11T20:38:44.729Z,0.00
2019-04-11T20:39:46.398Z,0.00
2019-04-11T20:40:43.028Z,0.00
2019-04-11T20:41:43.046Z,0.00
2019-04-11T20:42:42.986Z,0.00
2019-04-11T20:43:43.260Z,0.00
2019-04-11T20:44:42.941Z,0.00
2019-04-11T20:45:42.921Z,0.00
2019-04-11T20:46:42.899Z,0.00
2019-04-11T20:47:42.905Z,0.00
2019-04-11T20:48:42.854Z,0.00
2019-04-11T20:49:42.833Z,0.00
2019-04-11T20:50:42.811Z,0.00
2019-04-11T20:51:42.794Z,0.00
2019-04-11T20:52:42.781Z,0.00
2019-04-11T20:53:42.745Z,0.00
2019-04-11T20:54:45.198Z,0.00
2019-04-11T20:55:42.704Z,0.00
2019-04-11T20:56:42.680Z,0.00
2019-04-11T20:57:42.680Z,0.00
2019-04-11T20:58:42.644Z,0.00
2019-04-11T20:59:42.717Z,0.00
2019-04-11T21:00:50.144Z,0.00
2019-04-11T21:01:42.573Z,0.00
2019-04-11T21:02:42.566Z,0.00
2019-04-11T21:03:42.534Z,0.00
2019-04-11T21:04:42.507Z,0.00
2019-04-11T21:05:42.484Z,0.00
2019-04-11T21:06:42.461Z,0.00
2019-04-11T21:07:42.460Z,0.00
2019-04-11T21:08:42.419Z,0.00
2019-04-11T21:09:42.409Z,0.00
2019-04-11T21:10:42.380Z,0.00
2019-04-11T21:11:42.356Z,0.00
2019-04-11T21:12:42.336Z,0.00
2019-04-11T21:13:42.324Z,0.00
2019-04-11T21:14:42.299Z,0.00
2019-04-11T21:15:42.266Z,0.00
2019-04-11T21:16:42.244Z,0.00
2019-04-11T21:17:42.221Z,0.00
2019-04-11T21:18:42.216Z,0.00
2019-04-11T21:19:42.177Z,0.00
2019-04-11T21:20:42.156Z,0.00
2019-04-11T21:21:42.137Z,0.00
2019-04-11T21:22:42.112Z,0.00
2019-04-11T21:23:42.103Z,0.00
2019-04-11T21:24:42.066Z,0.00
2019-04-11T21:25:42.064Z,0.00
2019-04-11T21:26:42.024Z,0.00
2019-04-11T21:27:42.001Z,0.00
2019-04-11T21:28:42.015Z,0.00
2019-04-11T21:29:41.958Z,0.00
2019-04-11T21:30:41.939Z,0.00
2019-04-11T21:31:41.914Z,0.00
2019-04-11T21:32:41.891Z,0.00
2019-04-11T21:33:41.870Z,0.00
2019-04-11T21:34:41.858Z,0.00
2019-04-11T21:35:41.823Z,0.00
2019-04-11T21:36:41.807Z,0.00
2019-04-11T21:37:41.790Z,0.00
2019-04-11T21:38:41.757Z,0.00
2019-04-11T21:39:41.748Z,0.00
2019-04-11T21:40:41.715Z,0.00
2019-04-11T21:41:41.691Z,0.00
2019-04-11T21:42:41.667Z,0.00
2019-04-11T21:43:41.654Z,0.00
2019-04-11T21:44:41.638Z,0.00
2019-04-11T21:45:41.609Z,0.00
2019-04-11T21:46:41.970Z,0.00
2019-04-11T21:47:41.574Z,0.00
2019-04-11T21:48:41.534Z,0.00
2019-04-11T21:49:41.527Z,0.00
2019-04-11T21:50:41.491Z,0.00
2019-04-11T21:51:42.485Z,0.00
2019-04-11T21:52:43.633Z,0.00
2019-04-11T21:53:44.277Z,0.00
2019-04-11T21:54:45.031Z,0.00